Time;durP1;ratioP1;P1;durP2;ratioP2;P2;SDS_P1;SDS_P2;PMS_P1;PMS_P2;Temp;Humidity;BMP_temperature;BMP_pressure;BME280_temperature;BME280_humidity;BME280_pressure;Samples;Min_cycle;Max_cycle;Signal;HPM_P1;HPM_P2
2022/09/22 00:01:08;;;;;;;6.78;4.72;;;;;;;;;;4975798;28;20654;-54
2022/09/22 00:03:38;;;;;;;6.03;4.35;;;;;;;;;;4976012;28;20574;-56
2022/09/22 00:06:10;;;;;;;7.85;4.82;;;;;;;;;;4976530;28;20207;-57
2022/09/22 00:08:39;;;;;;;8.85;5.20;;;;;;;;;;4975786;28;20624;-52
2022/09/22 00:11:17;;;;;;;12.60;5.55;;;;;;;;;;4976289;28;20213;-56
2022/09/22 00:13:50;;;;;;;7.55;4.85;;;;;;;;;;4975936;28;20214;-55
2022/09/22 00:16:23;;;;;;;11.20;5.35;;;;;;;;;;4975904;28;20222;-54
2022/09/22 00:18:50;;;;;;;6.63;5.10;;;;;;;;;;4976143;28;20215;-55
2022/09/22 00:21:20;;;;;;;7.85;5.30;;;;;;;;;;4975609;28;20273;-52
2022/09/22 00:23:48;;;;;;;7.68;4.80;;;;;;;;;;4975682;28;20191;-54
2022/09/22 00:26:17;;;;;;;7.65;5.07;;;;;;;;;;4975560;28;20565;-54
2022/09/22 00:28:46;;;;;;;7.82;5.15;;;;;;;;;;4975577;28;20755;-53
2022/09/22 00:31:19;;;;;;;6.57;4.80;;;;;;;;;;4976329;28;20249;-53
2022/09/22 00:33:46;;;;;;;7.70;4.85;;;;;;;;;;4974836;28;20217;-56
2022/09/22 00:36:15;;;;;;;9.32;5.82;;;;;;;;;;4976072;28;20218;-56
2022/09/22 00:38:42;;;;;;;8.70;4.72;;;;;;;;;;4976078;28;20287;-54
2022/09/22 00:41:26;;;;;;;8.18;5.30;;;;;;;;;;4977542;28;20730;-54
2022/09/22 00:44:36;;;;;;;10.20;4.80;;;;;;;;;;4979686;28;20242;-54
2022/09/22 00:47:05;;;;;;;7.40;5.32;;;;;;;;;;4901268;29;20239;-57
2022/09/22 00:49:55;;;;;;;8.60;4.95;;;;;;;;;;4901087;29;20700;-55
2022/09/22 00:52:26;;;;;;;7.25;5.15;;;;;;;;;;4895539;29;20233;-56
2022/09/22 00:54:55;;;;;;;9.38;5.25;;;;;;;;;;4901518;29;20224;-54
2022/09/22 00:57:26;;;;;;;10.98;5.18;;;;;;;;;;4901086;29;20237;-56
2022/09/22 00:59:53;;;;;;;9.55;5.32;;;;;;;;;;4900836;29;20206;-56
2022/09/22 01:02:21;;;;;;;7.93;5.35;;;;;;;;;;4901559;29;20224;-55
2022/09/22 01:04:50;;;;;;;8.50;5.10;;;;;;;;;;4900818;29;20205;-56
2022/09/22 01:07:22;;;;;;;6.78;4.97;;;;;;;;;;4900717;29;20321;-57
2022/09/22 01:09:51;;;;;;;8.35;5.68;;;;;;;;;;4901231;29;20261;-54
2022/09/22 01:12:18;;;;;;;8.88;5.47;;;;;;;;;;4900576;29;20743;-54
2022/09/22 01:15:01;;;;;;;7.50;5.47;;;;;;;;;;4900730;29;20247;-55
2022/09/22 01:17:56;;;;;;;9.18;5.18;;;;;;;;;;4915445;28;20647;-58
2022/09/22 01:20:39;;;;;;;5.90;5.25;;;;;;;;;;4978648;28;20214;-55
2022/09/22 01:23:35;;;;;;;7.95;5.43;;;;;;;;;;4978744;28;20215;-54
2022/09/22 01:26:36;;;;;;;7.93;4.68;;;;;;;;;;4949413;28;20663;-55
2022/09/22 01:29:15;;;;;;;7.93;5.32;;;;;;;;;;4977490;28;20234;-54
2022/09/22 01:31:57;;;;;;;10.65;5.43;;;;;;;;;;4978283;28;20213;-54
2022/09/22 01:35:05;;;;;;;7.88;5.20;;;;;;;;;;4977640;28;20221;-54
2022/09/22 01:37:56;;;;;;;9.18;4.93;;;;;;;;;;4881437;29;20278;-56
2022/09/22 01:40:47;;;;;;;10.23;5.30;;;;;;;;;;4881789;29;20556;-55
2022/09/22 01:43:51;;;;;;;7.13;5.05;;;;;;;;;;4881651;29;20251;-54
2022/09/22 01:46:39;;;;;;;7.45;5.15;;;;;;;;;;4839309;29;20210;-55
2022/09/22 01:49:09;;;;;;;6.07;4.93;;;;;;;;;;4881852;29;20206;-55
2022/09/22 01:51:43;;;;;;;6.30;4.90;;;;;;;;;;4881388;29;20221;-52
2022/09/22 01:54:14;;;;;;;6.88;5.28;;;;;;;;;;4881346;29;20186;-51
2022/09/22 01:56:45;;;;;;;10.05;4.90;;;;;;;;;;4881693;29;20233;-54
2022/09/22 01:59:13;;;;;;;6.32;4.65;;;;;;;;;;4866453;29;20210;-53
2022/09/22 02:01:45;;;;;;;6.90;4.82;;;;;;;;;;4881237;29;20207;-53
2022/09/22 02:04:19;;;;;;;10.48;5.65;;;;;;;;;;4866048;29;20240;-54
2022/09/22 02:06:51;;;;;;;7.03;5.07;;;;;;;;;;4881278;29;20233;-55
2022/09/22 02:09:20;;;;;;;8.15;5.63;;;;;;;;;;4881145;29;20632;-52
2022/09/22 02:11:48;;;;;;;8.98;5.18;;;;;;;;;;4922246;28;20215;-54
2022/09/22 02:14:14;;;;;;;6.90;4.60;;;;;;;;;;4977221;28;20281;-57
2022/09/22 02:16:42;;;;;;;8.93;4.82;;;;;;;;;;4977125;28;20218;-54
2022/09/22 02:19:30;;;;;;;7.05;4.47;;;;;;;;;;4977572;28;20222;-51
2022/09/22 02:21:58;;;;;;;6.15;4.45;;;;;;;;;;4978654;28;20225;-58
2022/09/22 02:24:38;;;;;;;7.43;4.70;;;;;;;;;;4994929;28;20198;-54
2022/09/22 02:27:13;;;;;;;10.80;4.78;;;;;;;;;;4996469;28;20301;-56
2022/09/22 02:29:43;;;;;;;7.32;4.68;;;;;;;;;;4995468;28;20194;-53
2022/09/22 02:32:13;;;;;;;8.45;5.20;;;;;;;;;;4995734;28;20659;-56
2022/09/22 02:34:42;;;;;;;5.97;4.50;;;;;;;;;;4996236;28;20206;-54
2022/09/22 02:37:27;;;;;;;11.40;4.45;;;;;;;;;;4980187;28;20214;-55
2022/09/22 02:39:59;;;;;;;7.32;4.82;;;;;;;;;;4996543;28;20245;-51
2022/09/22 02:42:38;;;;;;;8.00;4.65;;;;;;;;;;4996779;28;20324;-54
2022/09/22 02:45:15;;;;;;;5.63;4.13;;;;;;;;;;4996874;28;20522;-52
2022/09/22 02:47:46;;;;;;;6.90;4.80;;;;;;;;;;4995424;28;20701;-54
2022/09/22 02:50:16;;;;;;;5.80;4.60;;;;;;;;;;4979582;28;20217;-53
2022/09/22 02:52:43;;;;;;;6.38;4.57;;;;;;;;;;4979616;28;20207;-56
2022/09/22 02:55:12;;;;;;;5.93;4.50;;;;;;;;;;4996378;28;20268;-54
2022/09/22 02:57:39;;;;;;;7.35;4.82;;;;;;;;;;4996482;28;20213;-54
2022/09/22 03:00:06;;;;;;;6.03;4.90;;;;;;;;;;4996157;28;20205;-57
2022/09/22 03:02:33;;;;;;;6.55;4.82;;;;;;;;;;4996019;28;20240;-54
2022/09/22 03:05:01;;;;;;;5.95;5.00;;;;;;;;;;4995752;28;20237;-54
2022/09/22 03:07:28;;;;;;;7.93;5.13;;;;;;;;;;4996568;28;20524;-55
2022/09/22 03:09:55;;;;;;;8.68;4.82;;;;;;;;;;4996340;28;20252;-52
2022/09/22 03:12:22;;;;;;;5.80;4.53;;;;;;;;;;4995835;28;20213;-53
2022/09/22 03:14:49;;;;;;;7.82;4.50;;;;;;;;;;4996045;28;20201;-55
2022/09/22 03:17:16;;;;;;;5.55;3.85;;;;;;;;;;4995840;28;20241;-51
2022/09/22 03:19:43;;;;;;;7.10;5.35;;;;;;;;;;4995716;28;20206;-51
2022/09/22 03:22:10;;;;;;;4.93;4.25;;;;;;;;;;4995981;28;20225;-54
2022/09/22 03:24:37;;;;;;;5.25;4.18;;;;;;;;;;4996404;28;20217;-55
2022/09/22 03:27:04;;;;;;;7.03;4.45;;;;;;;;;;4995841;28;20230;-53
2022/09/22 03:29:31;;;;;;;5.60;4.70;;;;;;;;;;4996023;28;20213;-51
2022/09/22 03:31:58;;;;;;;5.43;4.28;;;;;;;;;;4995727;28;20202;-50
2022/09/22 03:34:26;;;;;;;6.03;4.03;;;;;;;;;;4995393;28;20646;-55
2022/09/22 03:36:52;;;;;;;9.07;5.32;;;;;;;;;;4995519;28;20666;-53
2022/09/22 03:39:20;;;;;;;5.57;4.25;;;;;;;;;;4995928;28;20546;-50
2022/09/22 03:41:47;;;;;;;5.07;4.20;;;;;;;;;;4995594;28;20226;-55
2022/09/22 03:44:14;;;;;;;6.35;4.20;;;;;;;;;;4995638;28;20278;-53
2022/09/22 03:46:41;;;;;;;6.47;4.47;;;;;;;;;;4995310;28;20237;-56
2022/09/22 03:49:08;;;;;;;4.97;4.32;;;;;;;;;;4995447;28;20238;-54
2022/09/22 03:51:35;;;;;;;6.60;4.20;;;;;;;;;;4995395;28;20234;-53
2022/09/22 03:54:02;;;;;;;4.85;3.80;;;;;;;;;;4995278;28;20202;-52
2022/09/22 03:56:29;;;;;;;6.50;4.28;;;;;;;;;;4991578;28;20263;-59
2022/09/22 03:58:56;;;;;;;6.53;4.53;;;;;;;;;;4992423;28;20233;-55
2022/09/22 04:01:23;;;;;;;7.47;3.88;;;;;;;;;;4982333;28;20239;-54
2022/09/22 04:03:51;;;;;;;5.07;4.15;;;;;;;;;;4975091;28;20227;-50
2022/09/22 04:06:19;;;;;;;5.75;4.22;;;;;;;;;;4974697;28;20590;-55
2022/09/22 04:08:45;;;;;;;6.63;4.38;;;;;;;;;;4974564;28;20234;-54
2022/09/22 04:11:12;;;;;;;6.50;4.20;;;;;;;;;;4973672;28;20242;-57
2022/09/22 04:13:39;;;;;;;4.45;3.80;;;;;;;;;;4976564;28;20221;-52
2022/09/22 04:16:12;;;;;;;5.00;3.88;;;;;;;;;;4998018;28;20230;-53
2022/09/22 04:18:40;;;;;;;4.75;3.35;;;;;;;;;;4997855;28;20235;-57
2022/09/22 04:21:07;;;;;;;7.75;4.00;;;;;;;;;;4997741;28;20280;-54
2022/09/22 04:23:34;;;;;;;7.65;3.80;;;;;;;;;;4997725;28;20226;-50
2022/09/22 04:26:03;;;;;;;6.78;4.05;;;;;;;;;;4982763;28;20226;-57
2022/09/22 04:28:30;;;;;;;8.32;5.90;;;;;;;;;;4997305;28;20248;-53
2022/09/22 04:30:57;;;;;;;6.38;4.28;;;;;;;;;;4998065;28;20238;-56
2022/09/22 04:33:25;;;;;;;6.25;4.55;;;;;;;;;;4997889;28;20234;-55
2022/09/22 04:35:52;;;;;;;7.85;4.53;;;;;;;;;;4998110;28;20226;-54
2022/09/22 04:38:19;;;;;;;7.60;4.65;;;;;;;;;;4997970;28;20230;-57
2022/09/22 04:40:48;;;;;;;7.20;4.32;;;;;;;;;;4997650;28;20246;-58
2022/09/22 04:43:15;;;;;;;6.05;4.00;;;;;;;;;;4996877;28;20238;-58
2022/09/22 04:45:45;;;;;;;5.57;4.25;;;;;;;;;;4997358;28;20261;-58
2022/09/22 04:48:12;;;;;;;5.22;4.30;;;;;;;;;;4996909;28;20753;-57
2022/09/22 04:50:39;;;;;;;5.97;4.45;;;;;;;;;;4997784;28;20515;-58
2022/09/22 04:53:13;;;;;;;5.53;3.97;;;;;;;;;;4997292;28;20698;-57
2022/09/22 04:55:40;;;;;;;7.07;4.22;;;;;;;;;;4960653;28;20218;-58
2022/09/22 04:58:08;;;;;;;5.45;4.50;;;;;;;;;;4996386;28;20237;-60
2022/09/22 05:00:35;;;;;;;4.72;3.97;;;;;;;;;;4996398;28;20222;-57
2022/09/22 05:03:07;;;;;;;4.95;3.60;;;;;;;;;;4996640;28;20225;-56
2022/09/22 05:05:34;;;;;;;8.68;4.82;;;;;;;;;;4997294;28;20237;-54
2022/09/22 05:08:01;;;;;;;7.05;4.60;;;;;;;;;;4997217;28;20238;-58
2022/09/22 05:10:33;;;;;;;5.20;4.25;;;;;;;;;;4997401;28;20312;-57
2022/09/22 05:13:00;;;;;;;5.65;4.57;;;;;;;;;;4998141;28;20208;-58
2022/09/22 05:15:27;;;;;;;5.95;4.63;;;;;;;;;;4998148;28;20543;-58
2022/09/22 05:17:54;;;;;;;4.57;3.90;;;;;;;;;;4964497;28;20660;-57
2022/09/22 05:20:21;;;;;;;6.85;4.13;;;;;;;;;;4997893;28;20213;-57
2022/09/22 05:22:48;;;;;;;5.72;4.20;;;;;;;;;;4998125;28;20272;-57
2022/09/22 05:25:17;;;;;;;5.55;4.20;;;;;;;;;;4998159;28;20217;-58
2022/09/22 05:27:52;;;;;;;6.40;4.93;;;;;;;;;;4997375;28;20261;-58
2022/09/22 05:30:22;;;;;;;7.50;4.53;;;;;;;;;;4997797;28;20190;-58
2022/09/22 05:32:49;;;;;;;6.55;4.63;;;;;;;;;;4997681;28;20202;-58
2022/09/22 05:35:19;;;;;;;5.55;4.72;;;;;;;;;;4997743;28;20627;-57
2022/09/22 05:37:47;;;;;;;6.22;4.57;;;;;;;;;;4997883;28;20210;-56
2022/09/22 05:40:14;;;;;;;9.23;5.82;;;;;;;;;;4997859;28;20202;-56
2022/09/22 05:42:43;;;;;;;6.63;5.03;;;;;;;;;;4997870;28;20190;-55
2022/09/22 05:45:10;;;;;;;8.63;5.35;;;;;;;;;;4997540;28;20209;-58
2022/09/22 05:47:40;;;;;;;8.40;5.20;;;;;;;;;;4997651;28;20268;-58
2022/09/22 05:50:09;;;;;;;9.45;5.90;;;;;;;;;;4997972;28;20206;-56
2022/09/22 05:52:36;;;;;;;9.52;5.55;;;;;;;;;;4997645;28;20201;-57
2022/09/22 05:55:04;;;;;;;10.05;5.45;;;;;;;;;;4997254;28;20647;-58
2022/09/22 05:57:31;;;;;;;6.93;5.40;;;;;;;;;;4997418;28;20202;-58
2022/09/22 06:00:00;;;;;;;8.48;5.30;;;;;;;;;;4997414;28;20221;-56
2022/09/22 06:02:37;;;;;;;6.32;5.25;;;;;;;;;;4997745;28;20198;-57
2022/09/22 06:05:05;;;;;;;8.48;6.38;;;;;;;;;;4997391;28;20210;-57
2022/09/22 06:07:32;;;;;;;7.63;5.00;;;;;;;;;;4996970;28;20209;-58
2022/09/22 06:09:59;;;;;;;6.90;5.57;;;;;;;;;;4997517;28;20202;-56
2022/09/22 06:12:26;;;;;;;6.90;5.68;;;;;;;;;;4997101;28;20276;-57
2022/09/22 06:14:53;;;;;;;6.82;5.78;;;;;;;;;;4997852;28;20281;-57
2022/09/22 06:17:22;;;;;;;6.53;5.18;;;;;;;;;;4996887;28;20647;-55
2022/09/22 06:19:49;;;;;;;8.18;5.35;;;;;;;;;;4997105;28;20292;-58
2022/09/22 06:22:16;;;;;;;6.28;5.25;;;;;;;;;;4997341;28;20206;-57
2022/09/22 06:24:43;;;;;;;5.70;5.10;;;;;;;;;;4996772;28;20264;-57
2022/09/22 06:27:10;;;;;;;7.78;6.00;;;;;;;;;;4996813;28;20213;-58
2022/09/22 06:29:37;;;;;;;6.43;5.45;;;;;;;;;;4996653;28;20230;-57
2022/09/22 06:32:09;;;;;;;7.28;5.90;;;;;;;;;;4997500;28;20245;-57
2022/09/22 06:34:36;;;;;;;7.13;5.72;;;;;;;;;;4997229;28;20183;-58
2022/09/22 06:37:07;;;;;;;6.30;5.25;;;;;;;;;;4996508;28;20205;-58
2022/09/22 06:39:36;;;;;;;7.15;5.95;;;;;;;;;;4995712;28;20221;-56
2022/09/22 06:42:06;;;;;;;8.75;6.18;;;;;;;;;;4996812;28;20266;-58
2022/09/22 06:44:33;;;;;;;8.63;6.80;;;;;;;;;;4996331;28;20210;-58
2022/09/22 06:47:04;;;;;;;9.05;7.15;;;;;;;;;;4996829;28;20198;-57
2022/09/22 06:49:31;;;;;;;10.18;9.02;;;;;;;;;;4996644;28;20230;-57
2022/09/22 06:51:58;;;;;;;13.88;10.10;;;;;;;;;;4996339;28;20232;-58
2022/09/22 06:54:25;;;;;;;10.85;9.40;;;;;;;;;;4996199;28;20198;-57
2022/09/22 06:56:52;;;;;;;10.88;9.70;;;;;;;;;;4996256;28;20206;-57
2022/09/22 06:59:19;;;;;;;10.68;9.63;;;;;;;;;;4996410;28;20201;-58
2022/09/22 07:01:47;;;;;;;12.38;10.55;;;;;;;;;;4996258;28;20285;-54
2022/09/22 07:04:14;;;;;;;13.90;10.43;;;;;;;;;;4996181;28;20210;-57
2022/09/22 07:06:42;;;;;;;12.20;9.73;;;;;;;;;;4996067;28;20206;-57
2022/09/22 07:09:09;;;;;;;11.57;10.38;;;;;;;;;;4996122;28;20714;-56
2022/09/22 07:11:36;;;;;;;9.55;8.35;;;;;;;;;;4996046;28;20201;-57
2022/09/22 07:14:07;;;;;;;10.73;8.25;;;;;;;;;;4996022;28;20252;-57
2022/09/22 07:16:34;;;;;;;9.98;8.70;;;;;;;;;;4996039;28;20277;-56
2022/09/22 07:19:03;;;;;;;12.40;8.98;;;;;;;;;;4995669;28;20659;-57
2022/09/22 07:21:35;;;;;;;9.80;8.07;;;;;;;;;;4995909;28;20205;-56
2022/09/22 07:24:03;;;;;;;10.68;8.48;;;;;;;;;;4996705;28;20224;-57
2022/09/22 07:26:36;;;;;;;11.48;8.15;;;;;;;;;;4978817;28;20268;-56
2022/09/22 07:29:06;;;;;;;11.63;9.32;;;;;;;;;;4979198;28;20210;-57
2022/09/22 07:31:35;;;;;;;11.50;9.23;;;;;;;;;;4995779;28;20295;-58
2022/09/22 07:34:02;;;;;;;10.90;9.63;;;;;;;;;;4995835;28;20340;-59
2022/09/22 07:36:31;;;;;;;12.70;9.82;;;;;;;;;;4995892;28;20345;-56
2022/09/22 07:39:07;;;;;;;12.10;9.68;;;;;;;;;;4995904;28;20221;-58
2022/09/22 07:41:41;;;;;;;12.50;10.52;;;;;;;;;;4995641;28;20241;-55
2022/09/22 07:46:57;;;;;;;12.68;9.98;;;;;;;;;;4996229;28;20300;-56
2022/09/22 07:49:25;;;;;;;14.52;9.95;;;;;;;;;;4994934;28;20733;-55
2022/09/22 07:51:56;;;;;;;10.85;9.23;;;;;;;;;;4995448;28;20217;-56
2022/09/22 07:54:24;;;;;;;8.57;7.53;;;;;;;;;;4995434;28;20216;-54
2022/09/22 07:56:54;;;;;;;11.57;8.40;;;;;;;;;;4995276;28;20249;-56
2022/09/22 07:59:21;;;;;;;12.88;8.55;;;;;;;;;;4995626;28;20210;-56
2022/09/22 08:01:49;;;;;;;11.55;8.73;;;;;;;;;;4995216;28;20709;-56
2022/09/22 08:04:19;;;;;;;15.57;9.57;;;;;;;;;;4961795;28;20202;-55
2022/09/22 08:06:54;;;;;;;12.05;9.10;;;;;;;;;;4995553;28;20220;-57
2022/09/22 08:09:22;;;;;;;11.32;9.10;;;;;;;;;;4995175;28;20292;-55
2022/09/22 08:11:51;;;;;;;12.13;8.60;;;;;;;;;;4994977;28;20210;-57
2022/09/22 08:14:22;;;;;;;9.75;8.10;;;;;;;;;;4995369;28;20210;-57
2022/09/22 08:16:52;;;;;;;10.27;8.50;;;;;;;;;;4995517;28;20226;-56
2022/09/22 08:19:22;;;;;;;9.95;8.32;;;;;;;;;;4995414;28;20276;-56
2022/09/22 08:21:51;;;;;;;10.68;8.38;;;;;;;;;;4994952;28;20213;-53
2022/09/22 08:24:21;;;;;;;12.90;8.68;;;;;;;;;;4995884;28;20509;-57
2022/09/22 08:26:51;;;;;;;11.90;8.90;;;;;;;;;;4995507;28;20186;-56
2022/09/22 08:29:19;;;;;;;12.80;9.40;;;;;;;;;;4994986;28;20289;-58
2022/09/22 08:31:48;;;;;;;9.95;8.73;;;;;;;;;;4995114;28;20210;-55
2022/09/22 08:34:16;;;;;;;10.65;8.43;;;;;;;;;;4994933;28;20644;-55
2022/09/22 08:36:47;;;;;;;9.20;8.07;;;;;;;;;;4995227;28;20261;-57
2022/09/22 08:39:16;;;;;;;11.10;8.98;;;;;;;;;;4994949;28;20198;-56
2022/09/22 08:42:13;;;;;;;8.95;7.53;;;;;;;;;;4995149;28;20234;-53
2022/09/22 08:44:58;;;;;;;9.18;8.25;;;;;;;;;;4935382;29;20256;-55
2022/09/22 08:53:45;;;;;;;9.60;7.38;;;;;;;;;;4935475;29;20193;-57
2022/09/22 08:56:28;;;;;;;7.55;6.75;;;;;;;;;;4935785;29;20542;-57
2022/09/22 08:59:22;;;;;;;7.45;6.68;;;;;;;;;;4935631;29;20219;-56
2022/09/22 09:02:00;;;;;;;6.47;5.47;;;;;;;;;;4921609;29;20600;-56
2022/09/22 09:04:47;;;;;;;7.35;5.68;;;;;;;;;;4939208;29;20556;-57
2022/09/22 09:07:23;;;;;;;6.55;5.85;;;;;;;;;;4938679;29;20207;-57
2022/09/22 09:10:20;;;;;;;7.47;5.25;;;;;;;;;;4922971;29;20298;-56
2022/09/22 09:13:02;;;;;;;6.28;4.70;;;;;;;;;;4923389;29;20397;-53
2022/09/22 09:15:38;;;;;;;6.68;5.45;;;;;;;;;;4938947;29;20288;-57
2022/09/22 09:18:14;;;;;;;6.68;4.25;;;;;;;;;;4938749;29;20196;-56
2022/09/22 09:20:44;;;;;;;5.47;4.53;;;;;;;;;;4955002;28;20268;-57
2022/09/22 09:23:23;;;;;;;5.47;4.40;;;;;;;;;;4998402;28;20209;-56
2022/09/22 09:25:53;;;;;;;4.65;4.22;;;;;;;;;;4981659;28;20281;-55
2022/09/22 09:28:46;;;;;;;4.55;3.78;;;;;;;;;;4981169;28;20233;-57
2022/09/22 09:31:28;;;;;;;6.03;4.40;;;;;;;;;;4977479;28;20206;-55
2022/09/22 09:34:06;;;;;;;4.85;3.70;;;;;;;;;;4981131;28;20218;-56
2022/09/22 09:36:38;;;;;;;4.57;3.78;;;;;;;;;;4981025;28;20202;-57
2022/09/22 09:39:14;;;;;;;4.55;3.50;;;;;;;;;;4981218;28;20253;-57
2022/09/22 09:41:45;;;;;;;3.85;3.20;;;;;;;;;;4997604;28;20234;-57
2022/09/22 09:44:17;;;;;;;3.70;3.05;;;;;;;;;;4997756;28;20213;-56
2022/09/22 09:46:46;;;;;;;5.50;3.90;;;;;;;;;;4981225;28;20205;-56
2022/09/22 09:49:15;;;;;;;4.40;3.63;;;;;;;;;;4997377;28;20689;-56
2022/09/22 09:51:45;;;;;;;6.03;4.45;;;;;;;;;;4997631;28;20206;-57
2022/09/22 09:54:17;;;;;;;4.47;3.13;;;;;;;;;;4981875;28;20214;-55
2022/09/22 09:57:05;;;;;;;4.00;3.35;;;;;;;;;;4997410;28;20205;-57
2022/09/22 10:02:22;;;;;;;2.95;2.60;;;;;;;;;;4997800;28;20193;-57
2022/09/22 10:04:52;;;;;;;5.93;2.58;;;;;;;;;;4980605;28;20202;-56
2022/09/22 10:07:23;;;;;;;4.47;2.05;;;;;;;;;;4997156;28;20260;-56
2022/09/22 10:09:51;;;;;;;1.83;1.63;;;;;;;;;;4980622;28;20516;-56
2022/09/22 10:12:29;;;;;;;2.00;1.70;;;;;;;;;;4980025;28;20280;-56
2022/09/22 10:14:58;;;;;;;3.03;1.63;;;;;;;;;;4997542;28;20202;-54
2022/09/22 10:17:32;;;;;;;2.00;1.80;;;;;;;;;;4980265;28;20210;-56
2022/09/22 10:20:15;;;;;;;3.10;1.63;;;;;;;;;;4996785;28;20213;-56
2022/09/22 10:22:42;;;;;;;3.10;1.58;;;;;;;;;;4996882;28;20521;-57
2022/09/22 10:25:31;;;;;;;3.38;1.50;;;;;;;;;;4996991;28;20202;-57
2022/09/22 10:28:08;;;;;;;1.83;1.35;;;;;;;;;;4996773;28;20735;-57
2022/09/22 10:30:37;;;;;;;3.97;1.67;;;;;;;;;;4996741;28;20234;-56
2022/09/22 10:33:12;;;;;;;2.30;1.50;;;;;;;;;;4996540;28;20202;-55
2022/09/22 10:35:45;;;;;;;11.23;2.20;;;;;;;;;;4996630;28;20710;-56
2022/09/22 10:38:21;;;;;;;1.88;1.70;;;;;;;;;;4996889;28;20206;-57
2022/09/22 10:41:08;;;;;;;1.70;1.50;;;;;;;;;;4996580;28;20273;-56
2022/09/22 10:43:50;;;;;;;2.97;1.60;;;;;;;;;;4980028;28;20205;-53
2022/09/22 10:46:36;;;;;;;1.40;1.30;;;;;;;;;;4996470;28;20217;-57
2022/09/22 10:49:11;;;;;;;2.70;1.50;;;;;;;;;;4979881;28;20218;-56
2022/09/22 10:52:16;;;;;;;2.60;1.92;;;;;;;;;;4996174;28;20639;-55
2022/09/22 10:55:00;;;;;;;2.03;1.75;;;;;;;;;;4979859;28;20193;-57
2022/09/22 10:58:08;;;;;;;4.05;1.65;;;;;;;;;;4956135;29;20207;-56
2022/09/22 11:00:38;;;;;;;4.03;1.75;;;;;;;;;;4955620;29;20560;-58
2022/09/22 11:03:25;;;;;;;5.30;1.80;;;;;;;;;;4955756;29;20218;-58
2022/09/22 11:12:16;;;;;;;2.53;1.67;;;;;;;;;;4942242;29;20203;-57
2022/09/22 11:15:12;;;;;;;3.80;1.80;;;;;;;;;;4955667;29;20223;-54
2022/09/22 11:17:52;;;;;;;3.40;1.80;;;;;;;;;;4955544;29;20222;-57
2022/09/22 11:20:33;;;;;;;1.85;1.48;;;;;;;;;;4955480;29;20250;-57
2022/09/22 11:23:20;;;;;;;2.58;1.45;;;;;;;;;;4955596;29;20640;-56
2022/09/22 11:26:01;;;;;;;2.08;1.38;;;;;;;;;;4939215;29;20525;-56
2022/09/22 11:28:37;;;;;;;1.60;1.38;;;;;;;;;;4975397;28;20654;-55
2022/09/22 11:31:05;;;;;;;1.50;1.40;;;;;;;;;;4995966;28;20225;-57
2022/09/22 11:33:55;;;;;;;2.88;1.90;;;;;;;;;;4978942;28;20206;-56
2022/09/22 11:36:36;;;;;;;1.50;1.38;;;;;;;;;;4979184;28;20202;-57
2022/09/22 11:39:19;;;;;;;2.53;1.83;;;;;;;;;;4995549;28;20701;-54
2022/09/22 11:42:12;;;;;;;3.17;1.38;;;;;;;;;;4995784;28;20253;-56
2022/09/22 11:44:42;;;;;;;3.08;1.20;;;;;;;;;;4979316;28;20206;-56
2022/09/22 11:47:25;;;;;;;1.38;1.27;;;;;;;;;;4978794;28;20209;-56
2022/09/22 11:50:25;;;;;;;2.95;1.40;;;;;;;;;;4995684;28;20591;-56
2022/09/22 11:53:19;;;;;;;1.98;1.40;;;;;;;;;;4967201;28;20210;-57
2022/09/22 11:56:06;;;;;;;1.70;1.30;;;;;;;;;;4947287;28;20202;-54
2022/09/22 11:58:39;;;;;;;1.60;1.10;;;;;;;;;;4952079;28;20250;-57
2022/09/22 12:01:18;;;;;;;1.20;1.10;;;;;;;;;;4949611;28;20199;-55
2022/09/22 12:04:08;;;;;;;1.55;1.00;;;;;;;;;;4948693;28;20203;-58
2022/09/22 12:06:41;;;;;;;1.88;1.05;;;;;;;;;;4962290;28;20203;-58
2022/09/22 12:09:45;;;;;;;1.48;1.00;;;;;;;;;;4947876;28;20205;-59
2022/09/22 12:12:16;;;;;;;1.50;1.30;;;;;;;;;;4891958;29;20216;-59
2022/09/22 12:14:53;;;;;;;1.85;1.13;;;;;;;;;;4890842;29;20296;-59
2022/09/22 12:17:26;;;;;;;1.33;1.23;;;;;;;;;;4902513;29;20202;-59
2022/09/22 12:20:31;;;;;;;2.83;0.90;;;;;;;;;;4904220;29;20548;-59
2022/09/22 12:23:07;;;;;;;1.70;1.20;;;;;;;;;;4848854;29;20208;-59
2022/09/22 12:25:50;;;;;;;2.05;1.27;;;;;;;;;;4896119;29;20240;-59
2022/09/22 12:28:23;;;;;;;2.03;1.70;;;;;;;;;;4912170;29;20243;-58
2022/09/22 12:31:11;;;;;;;2.55;1.50;;;;;;;;;;4905388;29;20235;-59
2022/09/22 12:33:51;;;;;;;1.70;1.40;;;;;;;;;;4902382;29;20323;-58
2022/09/22 12:36:31;;;;;;;2.00;1.80;;;;;;;;;;4871325;29;20221;-58
2022/09/22 12:39:28;;;;;;;2.05;1.75;;;;;;;;;;4894234;29;20317;-57
2022/09/22 12:42:02;;;;;;;2.42;1.45;;;;;;;;;;4930908;29;20239;-58
2022/09/22 12:44:42;;;;;;;1.33;1.20;;;;;;;;;;4926467;29;20219;-60
2022/09/22 12:47:39;;;;;;;2.55;1.50;;;;;;;;;;4932520;28;20226;-59
2022/09/22 12:50:33;;;;;;;1.58;1.48;;;;;;;;;;4983829;28;20226;-58
2022/09/22 12:53:03;;;;;;;1.92;1.45;;;;;;;;;;4986893;28;20567;-59
2022/09/22 12:55:37;;;;;;;3.05;1.38;;;;;;;;;;4983746;28;20870;-59
2022/09/22 12:58:19;;;;;;;2.95;1.50;;;;;;;;;;4985267;28;20221;-58
2022/09/22 13:00:49;;;;;;;2.60;1.98;;;;;;;;;;4986617;28;20214;-58
2022/09/22 13:03:25;;;;;;;3.60;2.25;;;;;;;;;;4982046;28;20260;-59
2022/09/22 13:06:14;;;;;;;3.80;2.70;;;;;;;;;;4982419;28;20209;-58
2022/09/22 13:08:41;;;;;;;3.53;2.50;;;;;;;;;;4983396;28;20237;-59
2022/09/22 13:11:08;;;;;;;4.00;2.65;;;;;;;;;;4981869;28;20695;-59
2022/09/22 13:13:39;;;;;;;3.60;2.75;;;;;;;;;;4986559;28;20222;-58
2022/09/22 13:16:12;;;;;;;2.30;2.10;;;;;;;;;;4987597;28;20299;-59
2022/09/22 13:19:07;;;;;;;2.60;2.30;;;;;;;;;;4986398;28;20250;-59
2022/09/22 13:21:35;;;;;;;2.17;1.85;;;;;;;;;;4980925;28;20226;-59
2022/09/22 13:24:03;;;;;;;3.25;2.45;;;;;;;;;;4979196;28;20691;-59
2022/09/22 13:26:39;;;;;;;3.97;2.50;;;;;;;;;;4976608;28;20598;-58
2022/09/22 13:29:16;;;;;;;5.82;2.92;;;;;;;;;;4982480;28;20707;-58
2022/09/22 13:31:53;;;;;;;4.32;2.88;;;;;;;;;;4985641;28;20264;-58
2022/09/22 13:34:34;;;;;;;3.38;2.33;;;;;;;;;;4975587;28;20671;-58
2022/09/22 13:37:09;;;;;;;2.53;2.33;;;;;;;;;;4986699;28;20223;-58
2022/09/22 13:39:42;;;;;;;3.03;2.50;;;;;;;;;;4994804;28;20576;-58
2022/09/22 13:42:18;;;;;;;4.53;2.40;;;;;;;;;;5005398;28;20253;-59
2022/09/22 13:44:49;;;;;;;3.42;2.85;;;;;;;;;;4987384;28;20249;-59
2022/09/22 13:47:19;;;;;;;3.90;2.67;;;;;;;;;;4985926;28;20232;-59
2022/09/22 13:49:52;;;;;;;3.15;2.72;;;;;;;;;;4984248;28;20222;-59
2022/09/22 13:52:22;;;;;;;3.95;2.88;;;;;;;;;;4996721;28;20285;-58
2022/09/22 13:54:53;;;;;;;3.47;2.63;;;;;;;;;;4996084;28;20236;-59
2022/09/22 13:57:23;;;;;;;4.03;2.35;;;;;;;;;;4995799;28;20254;-58
2022/09/22 13:59:51;;;;;;;2.92;1.88;;;;;;;;;;4993476;28;20563;-59
2022/09/22 14:02:24;;;;;;;4.07;2.53;;;;;;;;;;4996345;28;20237;-59
2022/09/22 14:05:05;;;;;;;8.63;3.72;;;;;;;;;;4996034;28;20230;-59
2022/09/22 14:07:35;;;;;;;2.78;2.00;;;;;;;;;;4978970;28;20226;-58
2022/09/22 14:10:17;;;;;;;2.50;2.00;;;;;;;;;;4976586;28;20614;-58
2022/09/22 14:12:45;;;;;;;2.83;1.40;;;;;;;;;;4969280;28;20252;-58
2022/09/22 14:15:42;;;;;;;3.25;1.83;;;;;;;;;;4995677;28;20234;-59
2022/09/22 14:18:16;;;;;;;3.88;1.63;;;;;;;;;;5002585;28;20218;-58
2022/09/22 14:20:44;;;;;;;2.55;1.95;;;;;;;;;;4989749;28;20677;-58
2022/09/22 14:23:32;;;;;;;3.72;2.10;;;;;;;;;;4986292;28;20532;-58
2022/09/22 14:26:01;;;;;;;2.03;1.73;;;;;;;;;;4996398;28;20238;-58
2022/09/22 14:28:32;;;;;;;2.47;2.22;;;;;;;;;;4978776;28;20241;-58
2022/09/22 14:30:58;;;;;;;3.05;1.95;;;;;;;;;;4984833;28;20234;-57
2022/09/22 14:33:29;;;;;;;2.90;2.20;;;;;;;;;;4981150;28;20227;-58
2022/09/22 14:36:07;;;;;;;2.50;1.90;;;;;;;;;;4979145;28;20229;-58
2022/09/22 14:38:38;;;;;;;4.40;1.65;;;;;;;;;;4995812;28;20226;-57
2022/09/22 14:41:22;;;;;;;3.33;1.98;;;;;;;;;;4995673;28;20307;-58
2022/09/22 14:43:49;;;;;;;2.83;1.98;;;;;;;;;;4993945;28;20230;-58
2022/09/22 14:46:33;;;;;;;2.47;1.90;;;;;;;;;;4980870;28;20214;-58
2022/09/22 14:49:31;;;;;;;2.47;2.05;;;;;;;;;;4995816;28;20210;-58
2022/09/22 14:51:59;;;;;;;2.33;2.13;;;;;;;;;;4995928;28;20234;-58
2022/09/22 14:54:29;;;;;;;3.10;2.22;;;;;;;;;;4995344;28;20225;-59
2022/09/22 14:56:57;;;;;;;2.80;1.90;;;;;;;;;;4995433;28;20230;-59
2022/09/22 15:02:31;;;;;;;3.00;2.10;;;;;;;;;;4995805;28;20226;-58
2022/09/22 15:05:03;;;;;;;3.63;2.20;;;;;;;;;;4995827;28;20232;-58
2022/09/22 15:07:33;;;;;;;2.63;2.10;;;;;;;;;;4994579;28;20222;-58
2022/09/22 15:10:24;;;;;;;3.85;2.08;;;;;;;;;;4994006;28;20230;-58
2022/09/22 15:12:53;;;;;;;2.75;2.08;;;;;;;;;;4995383;28;20238;-58
2022/09/22 15:15:26;;;;;;;3.47;2.88;;;;;;;;;;4978100;28;20288;-58
2022/09/22 15:18:12;;;;;;;2.85;2.30;;;;;;;;;;4998033;28;20222;-58
2022/09/22 15:20:43;;;;;;;3.55;2.38;;;;;;;;;;5010727;28;20221;-58
2022/09/22 15:23:30;;;;;;;3.60;2.30;;;;;;;;;;4994515;28;20665;-58
2022/09/22 15:26:02;;;;;;;4.53;2.90;;;;;;;;;;4957790;28;20226;-58
2022/09/22 15:28:31;;;;;;;3.92;2.78;;;;;;;;;;4974514;28;20218;-53
2022/09/22 15:30:58;;;;;;;3.42;2.70;;;;;;;;;;4974649;28;20312;-51
2022/09/22 15:33:25;;;;;;;3.13;2.72;;;;;;;;;;4982910;28;20276;-51
2022/09/22 15:35:55;;;;;;;3.60;2.63;;;;;;;;;;4994088;28;20234;-50
2022/09/22 15:38:25;;;;;;;3.55;2.65;;;;;;;;;;4990136;28;20234;-60
2022/09/22 15:40:53;;;;;;;13.20;4.80;;;;;;;;;;4992068;28;20246;-58